createdAt,value
2022-11-26T00:01:30.840Z,90.87
2022-11-26T00:04:03.488Z,91.28
2022-11-26T00:06:38.453Z,91.16
2022-11-26T00:09:15.889Z,91.04
2022-11-26T00:11:45.769Z,90.97
2022-11-26T00:14:17.007Z,91.44
2022-11-26T00:16:46.935Z,91.67
2022-11-26T00:19:16.411Z,91.30
2022-11-26T00:21:45.787Z,91.23
2022-11-26T00:24:28.770Z,91.45
2022-11-26T00:27:00.685Z,90.93
2022-11-26T00:29:30.158Z,90.88
2022-11-26T00:31:59.832Z,91.25
2022-11-26T00:34:29.107Z,90.81
2022-11-26T00:36:58.583Z,91.03
2022-11-26T00:39:29.503Z,90.76
2022-11-26T00:41:58.880Z,90.75
2022-11-26T00:44:28.518Z,90.95
2022-11-26T00:46:58.033Z,90.98
2022-11-26T00:51:03.599Z,90.46
2022-11-26T00:53:33.114Z,90.61
2022-11-26T00:56:02.545Z,90.67
2022-11-26T00:58:33.402Z,90.93
2022-11-26T01:01:02.906Z,91.02
2022-11-26T01:03:32.332Z,90.68
2022-11-26T01:06:03.323Z,90.55
2022-11-26T01:08:36.273Z,90.49
2022-11-26T01:11:06.960Z,91.30
2022-11-26T01:13:36.780Z,91.28
2022-11-26T01:16:20.844Z,91.00
2022-11-26T01:18:51.574Z,91.13
2022-11-26T01:21:23.306Z,90.71
2022-11-26T01:23:52.757Z,90.64
2022-11-26T01:26:25.486Z,90.48
2022-11-26T01:28:55.123Z,90.72
2022-11-26T01:31:28.402Z,90.50
2022-11-26T01:33:58.622Z,90.80
2022-11-26T01:36:33.110Z,90.79
2022-11-26T01:39:06.365Z,90.98
2022-11-26T01:41:46.453Z,91.20
2022-11-26T01:44:22.237Z,91.24
2022-11-26T01:46:53.127Z,91.25
2022-11-26T01:49:27.229Z,90.99
2022-11-26T01:52:06.834Z,90.89
2022-11-26T01:54:39.520Z,91.32
2022-11-26T01:57:11.373Z,91.84
2022-11-26T01:59:44.816Z,91.63
2022-11-26T02:02:14.712Z,91.62
2022-11-26T02:04:52.247Z,91.74
2022-11-26T02:07:23.270Z,91.40
2022-11-26T02:09:53.012Z,91.36
2022-11-26T02:12:22.531Z,91.57
2022-11-26T02:14:51.980Z,91.81
2022-11-26T02:17:29.101Z,91.22
2022-11-26T02:20:42.960Z,91.49
2022-11-26T02:23:33.081Z,92.32
2022-11-26T02:26:39.450Z,91.93
2022-11-26T02:29:21.833Z,91.81
2022-11-26T02:31:58.120Z,91.75
2022-11-26T02:34:38.119Z,92.26
2022-11-26T02:37:16.866Z,92.09
2022-11-26T02:39:46.453Z,92.39
2022-11-26T02:42:27.649Z,92.04
2022-11-26T02:44:59.662Z,92.21
2022-11-26T02:47:31.933Z,92.03
2022-11-26T02:50:12.013Z,92.17
2022-11-26T02:52:44.154Z,92.27
2022-11-26T02:55:18.689Z,92.31
2022-11-26T02:57:52.177Z,92.30
2022-11-26T03:00:22.907Z,92.55
2022-11-26T03:03:00.020Z,92.54
2022-11-26T03:05:34.292Z,92.88
2022-11-26T03:08:05.574Z,93.34
2022-11-26T03:10:35.890Z,93.01
2022-11-26T03:13:05.284Z,93.08
2022-11-26T03:15:34.788Z,92.73
2022-11-26T03:18:05.851Z,92.66
2022-11-26T03:20:35.231Z,92.50
2022-11-26T03:23:04.995Z,92.64
2022-11-26T03:25:34.991Z,92.16
2022-11-26T03:28:04.746Z,92.54
2022-11-26T03:30:34.442Z,92.57
2022-11-26T03:33:05.341Z,92.29
2022-11-26T03:35:34.706Z,92.46
2022-11-26T03:38:04.056Z,92.39
2022-11-26T03:40:33.437Z,92.27
2022-11-26T03:43:02.934Z,92.13
2022-11-26T03:45:32.471Z,91.90
2022-11-26T03:48:01.830Z,91.98
2022-11-26T03:52:03.689Z,91.94
2022-11-26T03:54:33.234Z,91.86
2022-11-26T03:57:02.663Z,91.49
2022-11-26T03:59:32.294Z,91.56
2022-11-26T04:02:01.787Z,91.60
2022-11-26T04:04:31.230Z,91.94
2022-11-26T04:07:02.372Z,91.90
2022-11-26T04:09:31.972Z,92.09
2022-11-26T04:12:01.332Z,92.07
2022-11-26T04:14:30.915Z,92.20
2022-11-26T04:17:00.365Z,92.50
2022-11-26T04:19:30.684Z,92.19
2022-11-26T04:22:00.069Z,91.78
2022-11-26T04:24:31.227Z,92.20
2022-11-26T04:27:00.714Z,92.47
2022-11-26T04:29:29.994Z,92.94
2022-11-26T04:31:59.440Z,92.76
2022-11-26T04:34:28.878Z,93.17
2022-11-26T04:36:58.297Z,93.03
2022-11-26T04:39:27.613Z,92.61
2022-11-26T04:41:58.425Z,92.51
2022-11-26T04:44:27.953Z,92.36
2022-11-26T04:46:57.294Z,92.49
2022-11-26T04:49:26.991Z,92.28
2022-11-26T04:51:56.357Z,93.04
2022-11-26T04:54:25.807Z,92.65
2022-11-26T04:56:56.774Z,92.64
2022-11-26T04:59:26.213Z,92.95
2022-11-26T05:01:55.566Z,92.65
2022-11-26T05:04:25.084Z,92.46
2022-11-26T05:06:54.915Z,92.48
2022-11-26T05:09:24.354Z,92.64
2022-11-26T05:11:53.828Z,92.58
2022-11-26T05:14:25.129Z,92.78
2022-11-26T05:16:54.717Z,92.94
2022-11-26T05:19:24.372Z,92.23
2022-11-26T05:21:53.725Z,92.21
2022-11-26T05:24:23.338Z,91.95
2022-11-26T05:26:56.881Z,91.86
2022-11-26T05:29:28.566Z,92.15
2022-11-26T05:31:57.978Z,92.06
2022-11-26T05:34:27.467Z,92.01
2022-11-26T05:36:56.895Z,92.20
2022-11-26T05:39:26.568Z,92.06
2022-11-26T05:41:55.929Z,92.05
2022-11-26T05:44:26.935Z,92.06
2022-11-26T05:46:56.309Z,92.04
2022-11-26T05:49:25.812Z,92.00
2022-11-26T05:51:55.315Z,92.44
2022-11-26T05:54:25.127Z,92.52
2022-11-26T05:56:59.881Z,92.08
2022-11-26T05:59:32.114Z,92.52
2022-11-26T06:02:01.943Z,92.67
2022-11-26T06:04:31.751Z,92.49
2022-11-26T06:07:01.413Z,92.30
2022-11-26T06:09:30.830Z,92.53
2022-11-26T06:12:00.154Z,92.77
2022-11-26T06:14:30.961Z,92.56
2022-11-26T06:17:00.428Z,93.06
2022-11-26T06:19:29.968Z,93.19
2022-11-26T06:21:59.365Z,92.92
2022-11-26T06:24:28.738Z,93.05
2022-11-26T06:26:57.985Z,92.96
2022-11-26T06:29:28.404Z,92.68
2022-11-26T06:31:59.296Z,92.43
2022-11-26T06:34:28.819Z,92.94
2022-11-26T06:36:58.098Z,92.88
2022-11-26T06:39:27.486Z,92.86
2022-11-26T06:41:56.920Z,92.67
2022-11-26T06:44:26.233Z,92.75
2022-11-26T06:46:55.552Z,93.24
2022-11-26T06:52:03.727Z,93.10
2022-11-26T06:54:33.496Z,93.28
2022-11-26T06:57:02.769Z,93.58
2022-11-26T06:59:33.022Z,93.36
2022-11-26T07:02:02.513Z,93.43
2022-11-26T07:04:32.112Z,93.46
2022-11-26T07:07:03.040Z,93.63
2022-11-26T07:09:32.578Z,94.32
2022-11-26T07:12:02.048Z,94.94
2022-11-26T07:14:32.112Z,95.02
2022-11-26T07:17:01.451Z,94.74
2022-11-26T07:19:31.018Z,94.87
2022-11-26T07:22:03.055Z,95.64
2022-11-26T07:24:32.565Z,95.53
2022-11-26T07:27:01.907Z,94.92
2022-11-26T07:29:31.608Z,94.75
2022-11-26T07:32:01.201Z,93.49
2022-11-26T07:34:30.563Z,91.45
2022-11-26T07:37:01.426Z,89.64
2022-11-26T07:39:31.153Z,86.66
2022-11-26T07:42:00.533Z,83.69
2022-11-26T07:44:29.984Z,82.67
2022-11-26T07:46:59.352Z,82.09
2022-11-26T07:49:29.023Z,79.64
2022-11-26T07:51:58.620Z,77.39
2022-11-26T07:54:29.466Z,75.44
2022-11-26T07:56:59.055Z,75.45
2022-11-26T07:59:28.425Z,74.82
2022-11-26T08:01:57.879Z,74.14
2022-11-26T08:04:27.609Z,73.91
2022-11-26T08:06:56.980Z,73.05
2022-11-26T08:09:27.912Z,71.58
2022-11-26T08:11:57.498Z,70.38
2022-11-26T08:14:26.878Z,69.68
2022-11-26T08:16:57.395Z,69.66
2022-11-26T08:19:28.223Z,68.55
2022-11-26T08:21:57.770Z,68.48
2022-11-26T08:24:28.603Z,67.87
2022-11-26T08:26:59.669Z,67.13
2022-11-26T08:29:29.698Z,67.79
2022-11-26T08:31:59.206Z,67.54
2022-11-26T08:34:28.680Z,67.91
2022-11-26T08:36:58.270Z,68.19
2022-11-26T08:39:29.399Z,68.25
2022-11-26T08:41:59.207Z,67.80
2022-11-26T08:44:28.629Z,68.44
2022-11-26T08:46:58.016Z,68.91
2022-11-26T08:49:27.683Z,70.09
2022-11-26T08:51:58.251Z,70.57
2022-11-26T08:54:29.393Z,70.07
2022-11-26T08:56:58.850Z,70.32
2022-11-26T08:59:28.189Z,70.47
2022-11-26T09:01:57.615Z,71.57
2022-11-26T09:04:27.109Z,70.62
2022-11-26T09:06:56.458Z,70.96
2022-11-26T09:09:27.518Z,71.32
2022-11-26T09:12:02.300Z,70.09
2022-11-26T09:14:38.251Z,70.32
2022-11-26T09:17:10.114Z,69.07
2022-11-26T09:19:39.630Z,69.31
2022-11-26T09:22:09.068Z,69.45
2022-11-26T09:24:40.151Z,68.85
2022-11-26T09:27:12.376Z,68.46
2022-11-26T09:29:41.725Z,68.23
2022-11-26T09:32:31.204Z,67.90
2022-11-26T09:35:00.716Z,66.41
2022-11-26T09:37:30.151Z,65.86
2022-11-26T09:40:01.042Z,65.85
2022-11-26T09:42:47.744Z,65.45
2022-11-26T09:45:35.392Z,66.07
2022-11-26T09:48:06.444Z,66.25
2022-11-26T09:52:05.875Z,65.96
2022-11-26T09:54:35.719Z,66.44
2022-11-26T09:57:20.062Z,66.92
2022-11-26T09:59:51.915Z,65.47
2022-11-26T10:02:21.533Z,66.29
2022-11-26T10:04:51.592Z,64.14
2022-11-26T10:07:48.478Z,64.64
2022-11-26T10:10:25.551Z,66.14
2022-11-26T10:13:19.191Z,65.90
2022-11-26T10:16:01.286Z,65.73
2022-11-26T10:18:42.426Z,65.03
2022-11-26T10:21:32.335Z,65.41
2022-11-26T10:24:22.132Z,66.08
2022-11-26T10:26:53.073Z,65.77
2022-11-26T10:29:26.941Z,66.24
2022-11-26T10:32:01.627Z,67.05
2022-11-26T10:34:40.764Z,65.95
2022-11-26T10:37:10.892Z,65.71
2022-11-26T10:39:41.842Z,66.79
2022-11-26T10:42:20.447Z,65.16
2022-11-26T10:44:51.489Z,66.06
2022-11-26T10:47:25.501Z,66.93
2022-11-26T10:49:57.193Z,66.94
2022-11-26T10:52:30.651Z,65.76
2022-11-26T10:55:23.044Z,66.70
2022-11-26T10:57:57.155Z,65.37
2022-11-26T11:00:37.646Z,66.80
2022-11-26T11:03:18.020Z,65.72
2022-11-26T11:05:47.752Z,65.99
2022-11-26T11:08:30.343Z,66.26
2022-11-26T11:11:03.974Z,66.48
2022-11-26T11:13:43.884Z,66.86
2022-11-26T11:16:14.659Z,65.76
2022-11-26T11:18:52.954Z,66.33
2022-11-26T11:21:23.161Z,66.29
2022-11-26T11:24:08.150Z,66.44
2022-11-26T11:26:46.112Z,64.32
2022-11-26T11:29:35.031Z,66.12
2022-11-26T11:32:07.834Z,65.55
2022-11-26T11:34:39.496Z,66.12
2022-11-26T11:37:18.155Z,65.67
2022-11-26T11:39:47.506Z,65.87
2022-11-26T11:42:29.443Z,65.44
2022-11-26T11:45:00.343Z,65.49
2022-11-26T11:47:38.610Z,65.50
2022-11-26T11:50:22.298Z,64.59
2022-11-26T11:53:05.781Z,64.18
2022-11-26T11:56:01.030Z,65.42
2022-11-26T11:59:02.294Z,65.35
2022-11-26T12:01:56.702Z,63.80
2022-11-26T12:04:45.348Z,61.75
2022-11-26T12:07:38.788Z,63.47
2022-11-26T12:10:15.379Z,65.34
2022-11-26T12:12:49.362Z,62.83
2022-11-26T12:15:28.276Z,63.48
2022-11-26T12:18:05.004Z,63.71
2022-11-26T12:20:40.768Z,64.45
2022-11-26T12:23:27.805Z,64.39
2022-11-26T12:26:06.531Z,64.88
2022-11-26T12:28:44.778Z,64.81
2022-11-26T12:31:27.119Z,63.58
2022-11-26T12:34:08.357Z,64.61
2022-11-26T12:36:47.192Z,64.80
2022-11-26T12:39:27.128Z,65.17
2022-11-26T12:42:04.382Z,63.94
2022-11-26T12:44:39.379Z,64.33
2022-11-26T12:47:21.251Z,64.96
2022-11-26T12:52:18.091Z,64.36
2022-11-26T12:54:56.328Z,64.70
2022-11-26T12:57:31.191Z,64.96
2022-11-26T13:00:07.108Z,65.06
2022-11-26T13:02:40.627Z,65.49
2022-11-26T13:05:18.591Z,65.48
2022-11-26T13:08:15.698Z,65.08
2022-11-26T13:11:10.548Z,66.17
2022-11-26T13:13:49.422Z,67.01
2022-11-26T13:16:35.053Z,67.02
2022-11-26T13:19:11.798Z,67.14
2022-11-26T13:21:58.824Z,67.37
2022-11-26T13:25:05.370Z,66.94
2022-11-26T13:27:54.784Z,66.81
2022-11-26T13:30:31.601Z,67.69
2022-11-26T13:33:38.473Z,67.90
2022-11-26T13:36:47.447Z,68.01
2022-11-26T13:39:51.632Z,67.91
2022-11-26T13:42:47.514Z,67.24
2022-11-26T13:45:57.670Z,67.42
2022-11-26T13:48:35.674Z,68.08
2022-11-26T13:51:11.775Z,68.03
2022-11-26T13:53:47.239Z,68.17
2022-11-26T13:56:20.798Z,68.43
2022-11-26T13:58:55.661Z,68.59
2022-11-26T14:01:37.194Z,68.78
2022-11-26T14:04:09.896Z,69.12
2022-11-26T14:06:39.670Z,69.44
2022-11-26T14:09:09.160Z,69.67
2022-11-26T14:12:02.736Z,69.93
2022-11-26T14:14:37.002Z,69.94
2022-11-26T14:17:24.950Z,70.61
2022-11-26T14:20:10.456Z,70.85
2022-11-26T14:22:41.053Z,71.23
2022-11-26T14:25:14.745Z,71.32
2022-11-26T14:27:56.364Z,71.57
2022-11-26T14:30:29.336Z,71.40
2022-11-26T14:33:17.722Z,71.79
2022-11-26T14:35:57.549Z,72.46
2022-11-26T14:38:31.709Z,72.99
2022-11-26T14:41:03.028Z,73.46
2022-11-26T14:43:32.594Z,74.10
2022-11-26T14:46:12.789Z,74.19
2022-11-26T14:48:46.286Z,74.81
2022-11-26T14:51:23.225Z,75.15
2022-11-26T14:53:53.515Z,75.94
2022-11-26T14:56:26.030Z,75.97
2022-11-26T14:58:58.545Z,76.24
2022-11-26T15:01:32.600Z,76.90
2022-11-26T15:04:04.538Z,76.82
2022-11-26T15:06:38.729Z,77.29
2022-11-26T15:09:15.429Z,77.85
2022-11-26T15:11:49.976Z,78.56
2022-11-26T15:14:25.953Z,78.48
2022-11-26T15:17:00.598Z,78.98
2022-11-26T15:19:34.749Z,79.16
2022-11-26T15:22:08.717Z,79.48
2022-11-26T15:24:40.258Z,79.59
2022-11-26T15:27:30.469Z,79.92
2022-11-26T15:30:00.067Z,80.26
2022-11-26T15:32:33.039Z,80.69
2022-11-26T15:35:05.103Z,80.58
2022-11-26T15:37:34.450Z,81.14
2022-11-26T15:40:21.463Z,81.19
2022-11-26T15:42:53.553Z,81.34
2022-11-26T15:45:29.790Z,82.03
2022-11-26T15:48:00.767Z,81.91
2022-11-26T15:52:07.570Z,82.37
2022-11-26T15:55:11.011Z,82.50
2022-11-26T15:57:34.751Z,83.06
2022-11-26T16:00:09.948Z,83.22
2022-11-26T16:02:41.381Z,83.23
2022-11-26T16:05:28.985Z,83.68
2022-11-26T16:08:02.382Z,83.58
2022-11-26T16:10:35.694Z,83.90
2022-11-26T16:13:24.327Z,84.04
2022-11-26T16:16:01.118Z,84.12
2022-11-26T16:18:38.897Z,84.27
2022-11-26T16:21:17.162Z,84.55
2022-11-26T16:23:55.339Z,84.89
2022-11-26T16:26:25.115Z,84.74
2022-11-26T16:28:54.772Z,84.99
2022-11-26T16:31:24.999Z,85.46
2022-11-26T16:33:54.590Z,85.25
2022-11-26T16:36:28.441Z,85.45
2022-11-26T16:38:59.342Z,85.46
2022-11-26T16:41:29.079Z,85.46
2022-11-26T16:43:58.764Z,85.47
2022-11-26T16:46:28.324Z,85.88
2022-11-26T16:48:58.031Z,86.18
2022-11-26T16:51:27.536Z,86.05
2022-11-26T16:53:58.384Z,86.11
2022-11-26T16:56:33.054Z,86.01
2022-11-26T16:59:02.960Z,85.91
2022-11-26T17:01:33.518Z,85.95
2022-11-26T17:04:02.926Z,86.58
2022-11-26T17:06:36.169Z,86.62
2022-11-26T17:09:07.253Z,86.58
2022-11-26T17:11:36.591Z,86.74
2022-11-26T17:14:06.062Z,86.83
2022-11-26T17:16:36.089Z,86.81
2022-11-26T17:19:05.784Z,86.67
2022-11-26T17:21:35.295Z,87.20
2022-11-26T17:24:06.507Z,87.34
2022-11-26T17:26:36.058Z,87.47
2022-11-26T17:29:05.728Z,87.20
2022-11-26T17:31:35.247Z,87.41
2022-11-26T17:34:04.661Z,87.60
2022-11-26T17:36:36.849Z,87.45
2022-11-26T17:39:08.006Z,87.44
2022-11-26T17:41:37.468Z,87.57
2022-11-26T17:44:07.133Z,87.81
2022-11-26T17:46:54.492Z,87.73
2022-11-26T17:49:26.253Z,87.25
2022-11-26T17:51:55.730Z,87.91
2022-11-26T17:54:26.619Z,87.92
2022-11-26T17:56:56.016Z,88.12
2022-11-26T17:59:26.110Z,88.08
2022-11-26T18:01:55.917Z,89.13
2022-11-26T18:04:25.428Z,89.17
2022-11-26T18:07:05.493Z,89.00
2022-11-26T18:09:37.812Z,88.69
2022-11-26T18:12:10.932Z,88.54
2022-11-26T18:14:42.989Z,88.43
2022-11-26T18:17:13.108Z,88.59
2022-11-26T18:19:43.932Z,88.54
2022-11-26T18:22:17.209Z,88.98
2022-11-26T18:24:56.869Z,89.15
2022-11-26T18:27:31.300Z,88.99
2022-11-26T18:30:00.759Z,89.06
2022-11-26T18:32:30.245Z,89.10
2022-11-26T18:34:59.786Z,89.10
2022-11-26T18:37:29.199Z,89.68
2022-11-26T18:40:00.099Z,89.35
2022-11-26T18:42:37.046Z,88.85
2022-11-26T18:45:09.426Z,89.38
2022-11-26T18:47:39.041Z,88.98
2022-11-26T18:52:03.679Z,89.00
2022-11-26T18:54:33.120Z,88.98
2022-11-26T18:57:02.722Z,89.38
2022-11-26T18:59:32.234Z,89.10
2022-11-26T19:02:01.762Z,89.51
2022-11-26T19:04:31.367Z,89.37
2022-11-26T19:07:02.443Z,88.96
2022-11-26T19:09:31.874Z,89.36
2022-11-26T19:12:01.401Z,89.23
2022-11-26T19:14:30.990Z,89.34
2022-11-26T19:17:00.722Z,89.11
2022-11-26T19:19:30.218Z,89.09
2022-11-26T19:22:01.664Z,89.28
2022-11-26T19:24:33.052Z,89.40
2022-11-26T19:27:02.440Z,89.11
2022-11-26T19:29:31.998Z,89.20
2022-11-26T19:32:01.519Z,89.09
2022-11-26T19:34:30.997Z,89.49
2022-11-26T19:37:00.358Z,89.30
2022-11-26T19:39:29.743Z,89.63
2022-11-26T19:42:00.571Z,89.41
2022-11-26T19:44:30.000Z,89.45
2022-11-26T19:46:59.561Z,89.46
2022-11-26T19:49:29.410Z,89.91
2022-11-26T19:51:59.202Z,90.04
2022-11-26T19:54:28.666Z,90.14
2022-11-26T19:56:59.475Z,89.99
2022-11-26T19:59:29.226Z,89.55
2022-11-26T20:01:58.958Z,89.97
2022-11-26T20:04:29.843Z,89.66
2022-11-26T20:06:59.793Z,89.68
2022-11-26T20:09:29.212Z,90.30
2022-11-26T20:12:00.105Z,90.26
2022-11-26T20:14:29.526Z,89.96
2022-11-26T20:17:01.081Z,90.09
2022-11-26T20:19:30.758Z,90.16
2022-11-26T20:22:00.164Z,90.59
2022-11-26T20:24:29.582Z,90.28
2022-11-26T20:27:00.520Z,90.49
2022-11-26T20:29:30.011Z,90.64
2022-11-26T20:31:59.394Z,90.66
2022-11-26T20:34:30.197Z,91.04
2022-11-26T20:36:59.648Z,91.00
2022-11-26T20:39:30.106Z,91.03
2022-11-26T20:42:01.042Z,91.55
2022-11-26T20:44:31.499Z,91.45
2022-11-26T20:47:00.955Z,91.67
2022-11-26T20:49:34.089Z,91.89
2022-11-26T20:52:06.699Z,92.39
2022-11-26T20:54:36.653Z,92.24
2022-11-26T20:57:07.497Z,92.35
2022-11-26T20:59:36.936Z,92.15
2022-11-26T21:02:06.634Z,92.32
2022-11-26T21:04:36.250Z,92.13
2022-11-26T21:07:06.005Z,93.99
2022-11-26T21:09:35.641Z,93.90
2022-11-26T21:12:06.922Z,93.64
2022-11-26T21:14:36.322Z,93.72
2022-11-26T21:17:05.838Z,94.12
2022-11-26T21:19:35.551Z,93.98
2022-11-26T21:22:04.916Z,94.18
2022-11-26T21:24:34.405Z,94.10
2022-11-26T21:27:05.647Z,94.21
2022-11-26T21:29:35.123Z,93.99
2022-11-26T21:32:04.670Z,93.99
2022-11-26T21:34:34.444Z,94.19
2022-11-26T21:37:03.902Z,94.43
2022-11-26T21:39:33.283Z,94.46
2022-11-26T21:42:02.727Z,95.04
2022-11-26T21:44:33.700Z,94.88
2022-11-26T21:47:04.046Z,94.80
2022-11-26T21:52:03.361Z,94.99
2022-11-26T21:54:32.704Z,95.08
2022-11-26T21:57:02.122Z,94.66
2022-11-26T21:59:31.689Z,95.12
2022-11-26T22:02:01.176Z,95.12
2022-11-26T22:04:30.555Z,95.29
2022-11-26T22:07:01.682Z,95.03
2022-11-26T22:09:31.216Z,94.95
2022-11-26T22:12:00.612Z,94.96
2022-11-26T22:14:30.057Z,94.90
2022-11-26T22:16:59.659Z,95.06
2022-11-26T22:19:29.123Z,95.61
2022-11-26T22:21:58.604Z,95.50
2022-11-26T22:24:29.506Z,95.41
2022-11-26T22:26:59.523Z,95.34
2022-11-26T22:29:28.903Z,95.37
2022-11-26T22:31:58.533Z,95.65
2022-11-26T22:34:29.320Z,95.59
2022-11-26T22:36:58.967Z,95.72
2022-11-26T22:39:32.106Z,95.90
2022-11-26T22:42:02.033Z,96.23
2022-11-26T22:44:31.462Z,96.51
2022-11-26T22:47:00.896Z,97.12
2022-11-26T22:49:30.406Z,96.63
2022-11-26T22:51:59.828Z,97.01
2022-11-26T22:54:30.754Z,97.47
2022-11-26T22:57:00.252Z,97.92
2022-11-26T22:59:29.875Z,97.70
2022-11-26T23:01:59.684Z,97.90
2022-11-26T23:04:29.284Z,97.49
2022-11-26T23:06:58.781Z,97.70
2022-11-26T23:09:29.644Z,97.49
2022-11-26T23:12:00.062Z,97.43
2022-11-26T23:14:29.668Z,97.15
2022-11-26T23:16:59.180Z,97.09
2022-11-26T23:19:28.665Z,96.90
2022-11-26T23:21:58.089Z,96.90
2022-11-26T23:24:30.286Z,97.31
2022-11-26T23:27:01.203Z,97.33
2022-11-26T23:29:30.824Z,97.30
2022-11-26T23:32:00.322Z,97.05
2022-11-26T23:34:29.808Z,96.96
2022-11-26T23:36:59.358Z,96.94
2022-11-26T23:39:28.891Z,97.19
2022-11-26T23:41:59.729Z,96.90
2022-11-26T23:44:29.256Z,97.04
2022-11-26T23:46:58.487Z,96.79
2022-11-26T23:49:27.970Z,96.86
2022-11-26T23:51:57.973Z,97.20
2022-11-26T23:54:27.888Z,97.10
2022-11-26T23:56:57.302Z,97.23
2022-11-26T23:59:28.332Z,96.85
